sensor_id;sensor_type;location;lat;lon;timestamp;P1;durP1;ratioP1;P2;durP2;ratioP2
9138;SDS011;4604;48.616;9.548;2023-10-08T00:00:22;6.73;;;2.63;;
9138;SDS011;4604;48.616;9.548;2023-10-08T00:03:08;3.67;;;2.27;;
9138;SDS011;4604;48.616;9.548;2023-10-08T00:05:37;7.07;;;2.78;;
9138;SDS011;4604;48.616;9.548;2023-10-08T00:08:05;3.93;;;2.40;;
9138;SDS011;4604;48.616;9.548;2023-10-08T00:10:36;4.73;;;2.33;;
9138;SDS011;4604;48.616;9.548;2023-10-08T00:13:05;6.03;;;2.60;;
9138;SDS011;4604;48.616;9.548;2023-10-08T00:15:33;7.03;;;2.33;;
9138;SDS011;4604;48.616;9.548;2023-10-08T00:18:01;4.70;;;2.27;;
9138;SDS011;4604;48.616;9.548;2023-10-08T00:20:30;4.23;;;2.23;;
9138;SDS011;4604;48.616;9.548;2023-10-08T00:23:00;5.30;;;2.70;;
9138;SDS011;4604;48.616;9.548;2023-10-08T00:25:34;4.83;;;2.27;;
9138;SDS011;4604;48.616;9.548;2023-10-08T00:28:05;6.77;;;2.03;;
9138;SDS011;4604;48.616;9.548;2023-10-08T00:30:37;6.73;;;2.90;;
9138;SDS011;4604;48.616;9.548;2023-10-08T00:33:05;5.57;;;2.30;;
9138;SDS011;4604;48.616;9.548;2023-10-08T00:35:36;7.83;;;2.50;;
9138;SDS011;4604;48.616;9.548;2023-10-08T00:38:04;4.70;;;2.10;;
9138;SDS011;4604;48.616;9.548;2023-10-08T00:40:41;4.60;;;2.43;;
9138;SDS011;4604;48.616;9.548;2023-10-08T00:43:11;5.15;;;2.53;;
9138;SDS011;4604;48.616;9.548;2023-10-08T00:45:52;4.23;;;2.20;;
9138;SDS011;4604;48.616;9.548;2023-10-08T00:48:19;5.90;;;2.40;;
9138;SDS011;4604;48.616;9.548;2023-10-08T00:50:47;6.70;;;2.60;;
9138;SDS011;4604;48.616;9.548;2023-10-08T00:53:14;4.47;;;2.20;;
9138;SDS011;4604;48.616;9.548;2023-10-08T00:55:48;5.20;;;2.20;;
9138;SDS011;4604;48.616;9.548;2023-10-08T00:58:19;6.17;;;2.57;;
9138;SDS011;4604;48.616;9.548;2023-10-08T01:00:52;9.90;;;2.70;;
9138;SDS011;4604;48.616;9.548;2023-10-08T01:03:27;9.60;;;2.10;;
9138;SDS011;4604;48.616;9.548;2023-10-08T01:06:04;5.18;;;2.40;;
9138;SDS011;4604;48.616;9.548;2023-10-08T01:08:37;5.77;;;2.60;;
9138;SDS011;4604;48.616;9.548;2023-10-08T01:11:30;6.67;;;2.73;;
9138;SDS011;4604;48.616;9.548;2023-10-08T01:14:24;7.07;;;2.67;;
9138;SDS011;4604;48.616;9.548;2023-10-08T01:16:58;4.27;;;2.43;;
9138;SDS011;4604;48.616;9.548;2023-10-08T01:19:37;7.07;;;2.50;;
9138;SDS011;4604;48.616;9.548;2023-10-08T01:22:14;5.80;;;2.30;;
9138;SDS011;4604;48.616;9.548;2023-10-08T01:24:49;6.40;;;2.83;;
9138;SDS011;4604;48.616;9.548;2023-10-08T01:27:20;5.63;;;2.47;;
9138;SDS011;4604;48.616;9.548;2023-10-08T01:29:53;5.03;;;2.53;;
9138;SDS011;4604;48.616;9.548;2023-10-08T01:32:20;3.55;;;2.35;;
9138;SDS011;4604;48.616;9.548;2023-10-08T01:34:48;4.97;;;2.08;;
9138;SDS011;4604;48.616;9.548;2023-10-08T01:37:17;7.25;;;2.90;;
9138;SDS011;4604;48.616;9.548;2023-10-08T01:39:44;8.60;;;2.37;;
9138;SDS011;4604;48.616;9.548;2023-10-08T01:42:28;3.35;;;2.10;;
9138;SDS011;4604;48.616;9.548;2023-10-08T01:45:03;4.60;;;2.60;;
9138;SDS011;4604;48.616;9.548;2023-10-08T01:47:40;6.03;;;2.33;;
9138;SDS011;4604;48.616;9.548;2023-10-08T01:50:23;6.13;;;2.67;;
9138;SDS011;4604;48.616;9.548;2023-10-08T01:52:55;7.53;;;2.53;;
9138;SDS011;4604;48.616;9.548;2023-10-08T01:55:25;4.63;;;2.37;;
9138;SDS011;4604;48.616;9.548;2023-10-08T01:58:12;8.00;;;2.60;;
9138;SDS011;4604;48.616;9.548;2023-10-08T02:00:45;7.57;;;2.60;;
9138;SDS011;4604;48.616;9.548;2023-10-08T02:03:21;6.00;;;2.23;;
9138;SDS011;4604;48.616;9.548;2023-10-08T02:05:55;4.27;;;2.03;;
9138;SDS011;4604;48.616;9.548;2023-10-08T02:08:35;6.90;;;2.67;;
9138;SDS011;4604;48.616;9.548;2023-10-08T02:11:07;4.80;;;2.70;;
9138;SDS011;4604;48.616;9.548;2023-10-08T02:13:35;4.97;;;2.60;;
9138;SDS011;4604;48.616;9.548;2023-10-08T02:16:02;9.73;;;2.65;;
9138;SDS011;4604;48.616;9.548;2023-10-08T02:18:29;4.90;;;2.40;;
9138;SDS011;4604;48.616;9.548;2023-10-08T02:20:55;6.77;;;2.33;;
9138;SDS011;4604;48.616;9.548;2023-10-08T02:23:23;7.23;;;2.73;;
9138;SDS011;4604;48.616;9.548;2023-10-08T02:25:51;6.30;;;2.53;;
9138;SDS011;4604;48.616;9.548;2023-10-08T02:28:20;4.43;;;2.20;;
9138;SDS011;4604;48.616;9.548;2023-10-08T02:30:49;6.67;;;2.33;;
9138;SDS011;4604;48.616;9.548;2023-10-08T02:33:16;5.37;;;2.50;;
9138;SDS011;4604;48.616;9.548;2023-10-08T02:35:43;8.97;;;2.77;;
9138;SDS011;4604;48.616;9.548;2023-10-08T02:38:11;4.53;;;2.40;;
9138;SDS011;4604;48.616;9.548;2023-10-08T02:40:41;5.65;;;2.42;;
9138;SDS011;4604;48.616;9.548;2023-10-08T02:43:11;6.82;;;2.65;;
9138;SDS011;4604;48.616;9.548;2023-10-08T02:45:39;9.00;;;2.30;;
9138;SDS011;4604;48.616;9.548;2023-10-08T02:48:06;6.70;;;2.23;;
9138;SDS011;4604;48.616;9.548;2023-10-08T02:50:37;7.90;;;2.60;;
9138;SDS011;4604;48.616;9.548;2023-10-08T02:53:04;8.37;;;2.63;;
9138;SDS011;4604;48.616;9.548;2023-10-08T02:55:36;8.37;;;2.40;;
9138;SDS011;4604;48.616;9.548;2023-10-08T02:58:07;7.07;;;2.83;;
9138;SDS011;4604;48.616;9.548;2023-10-08T03:00:37;5.17;;;2.50;;
9138;SDS011;4604;48.616;9.548;2023-10-08T03:03:06;6.77;;;2.97;;
9138;SDS011;4604;48.616;9.548;2023-10-08T03:05:40;4.33;;;2.50;;
9138;SDS011;4604;48.616;9.548;2023-10-08T03:08:09;6.83;;;2.70;;
9138;SDS011;4604;48.616;9.548;2023-10-08T03:10:39;6.57;;;2.70;;
9138;SDS011;4604;48.616;9.548;2023-10-08T03:13:26;4.07;;;2.27;;
9138;SDS011;4604;48.616;9.548;2023-10-08T03:16:22;6.67;;;3.37;;
9138;SDS011;4604;48.616;9.548;2023-10-08T03:19:02;6.60;;;2.77;;
9138;SDS011;4604;48.616;9.548;2023-10-08T03:21:35;4.90;;;3.03;;
9138;SDS011;4604;48.616;9.548;2023-10-08T03:24:23;5.23;;;2.77;;
9138;SDS011;4604;48.616;9.548;2023-10-08T03:27:10;7.90;;;3.20;;
9138;SDS011;4604;48.616;9.548;2023-10-08T03:29:53;5.37;;;2.50;;
9138;SDS011;4604;48.616;9.548;2023-10-08T03:32:44;7.43;;;2.63;;
9138;SDS011;4604;48.616;9.548;2023-10-08T03:35:44;5.60;;;2.63;;
9138;SDS011;4604;48.616;9.548;2023-10-08T03:38:11;7.90;;;3.10;;
9138;SDS011;4604;48.616;9.548;2023-10-08T03:40:53;9.37;;;2.93;;
9138;SDS011;4604;48.616;9.548;2023-10-08T03:43:28;13.50;;;3.73;;
9138;SDS011;4604;48.616;9.548;2023-10-08T03:46:08;7.70;;;2.60;;
9138;SDS011;4604;48.616;9.548;2023-10-08T03:48:42;7.43;;;3.17;;
9138;SDS011;4604;48.616;9.548;2023-10-08T03:51:10;8.27;;;2.77;;
9138;SDS011;4604;48.616;9.548;2023-10-08T03:53:37;6.07;;;2.70;;
9138;SDS011;4604;48.616;9.548;2023-10-08T03:56:22;6.83;;;2.43;;
9138;SDS011;4604;48.616;9.548;2023-10-08T03:58:50;6.00;;;3.10;;
9138;SDS011;4604;48.616;9.548;2023-10-08T04:01:19;6.17;;;2.50;;
9138;SDS011;4604;48.616;9.548;2023-10-08T04:03:48;6.30;;;2.17;;
9138;SDS011;4604;48.616;9.548;2023-10-08T04:06:24;6.70;;;2.80;;
9138;SDS011;4604;48.616;9.548;2023-10-08T04:08:56;5.13;;;2.50;;
9138;SDS011;4604;48.616;9.548;2023-10-08T04:11:37;10.37;;;2.73;;
9138;SDS011;4604;48.616;9.548;2023-10-08T04:14:16;9.70;;;2.70;;
9138;SDS011;4604;48.616;9.548;2023-10-08T04:16:44;6.73;;;2.50;;
9138;SDS011;4604;48.616;9.548;2023-10-08T04:19:12;10.80;;;2.70;;
9138;SDS011;4604;48.616;9.548;2023-10-08T04:21:43;8.03;;;2.43;;
9138;SDS011;4604;48.616;9.548;2023-10-08T04:24:10;7.83;;;2.43;;
9138;SDS011;4604;48.616;9.548;2023-10-08T04:26:41;6.83;;;2.93;;
9138;SDS011;4604;48.616;9.548;2023-10-08T04:29:08;7.27;;;2.73;;
9138;SDS011;4604;48.616;9.548;2023-10-08T04:31:35;8.93;;;2.87;;
9138;SDS011;4604;48.616;9.548;2023-10-08T04:34:09;8.63;;;2.93;;
9138;SDS011;4604;48.616;9.548;2023-10-08T04:36:42;10.23;;;2.27;;
9138;SDS011;4604;48.616;9.548;2023-10-08T04:39:10;8.80;;;2.90;;
9138;SDS011;4604;48.616;9.548;2023-10-08T04:41:40;6.03;;;2.30;;
9138;SDS011;4604;48.616;9.548;2023-10-08T04:44:09;7.83;;;2.40;;
9138;SDS011;4604;48.616;9.548;2023-10-08T04:46:41;5.93;;;2.40;;
9138;SDS011;4604;48.616;9.548;2023-10-08T04:49:17;6.73;;;2.97;;
9138;SDS011;4604;48.616;9.548;2023-10-08T04:51:55;9.13;;;2.77;;
9138;SDS011;4604;48.616;9.548;2023-10-08T04:54:29;4.40;;;2.50;;
9138;SDS011;4604;48.616;9.548;2023-10-08T04:57:19;7.57;;;2.80;;
9138;SDS011;4604;48.616;9.548;2023-10-08T05:00:15;6.70;;;2.43;;
9138;SDS011;4604;48.616;9.548;2023-10-08T05:02:53;9.47;;;2.60;;
9138;SDS011;4604;48.616;9.548;2023-10-08T05:05:33;6.90;;;2.57;;
9138;SDS011;4604;48.616;9.548;2023-10-08T05:11:48;6.00;;;2.60;;
9138;SDS011;4604;48.616;9.548;2023-10-08T05:14:34;4.17;;;2.47;;
9138;SDS011;4604;48.616;9.548;2023-10-08T05:17:27;8.80;;;2.87;;
9138;SDS011;4604;48.616;9.548;2023-10-08T05:20:08;5.97;;;2.20;;
9138;SDS011;4604;48.616;9.548;2023-10-08T05:22:54;5.30;;;2.50;;
9138;SDS011;4604;48.616;9.548;2023-10-08T05:25:22;4.87;;;2.50;;
9138;SDS011;4604;48.616;9.548;2023-10-08T05:28:00;6.03;;;2.20;;
9138;SDS011;4604;48.616;9.548;2023-10-08T05:30:34;13.13;;;3.27;;
9138;SDS011;4604;48.616;9.548;2023-10-08T05:33:07;6.00;;;2.50;;
9138;SDS011;4604;48.616;9.548;2023-10-08T05:38:35;5.40;;;2.60;;
9138;SDS011;4604;48.616;9.548;2023-10-08T05:41:14;7.63;;;2.70;;
9138;SDS011;4604;48.616;9.548;2023-10-08T05:44:16;7.27;;;2.53;;
9138;SDS011;4604;48.616;9.548;2023-10-08T05:47:03;5.50;;;2.53;;
9138;SDS011;4604;48.616;9.548;2023-10-08T05:49:49;6.90;;;2.73;;
9138;SDS011;4604;48.616;9.548;2023-10-08T05:52:53;6.00;;;2.43;;
9138;SDS011;4604;48.616;9.548;2023-10-08T05:55:40;4.63;;;2.43;;
9138;SDS011;4604;48.616;9.548;2023-10-08T05:58:13;5.40;;;2.50;;
9138;SDS011;4604;48.616;9.548;2023-10-08T06:00:50;4.77;;;2.57;;
9138;SDS011;4604;48.616;9.548;2023-10-08T06:03:34;5.70;;;2.60;;
9138;SDS011;4604;48.616;9.548;2023-10-08T06:06:14;5.57;;;2.40;;
9138;SDS011;4604;48.616;9.548;2023-10-08T06:08:48;5.53;;;2.40;;
9138;SDS011;4604;48.616;9.548;2023-10-08T06:11:34;7.87;;;2.47;;
9138;SDS011;4604;48.616;9.548;2023-10-08T06:14:11;6.77;;;2.40;;
9138;SDS011;4604;48.616;9.548;2023-10-08T06:16:53;10.60;;;2.50;;
9138;SDS011;4604;48.616;9.548;2023-10-08T06:19:38;4.90;;;2.20;;
9138;SDS011;4604;48.616;9.548;2023-10-08T06:22:05;6.07;;;2.33;;
9138;SDS011;4604;48.616;9.548;2023-10-08T06:24:31;6.50;;;2.50;;
9138;SDS011;4604;48.616;9.548;2023-10-08T06:27:03;4.97;;;2.37;;
9138;SDS011;4604;48.616;9.548;2023-10-08T06:29:32;10.87;;;2.80;;
9138;SDS011;4604;48.616;9.548;2023-10-08T06:31:59;4.77;;;2.80;;
9138;SDS011;4604;48.616;9.548;2023-10-08T06:34:27;4.63;;;2.63;;
9138;SDS011;4604;48.616;9.548;2023-10-08T06:36:55;5.77;;;2.63;;
9138;SDS011;4604;48.616;9.548;2023-10-08T06:39:26;3.97;;;2.37;;
9138;SDS011;4604;48.616;9.548;2023-10-08T06:41:58;4.07;;;2.60;;
9138;SDS011;4604;48.616;9.548;2023-10-08T06:44:25;8.53;;;2.80;;
9138;SDS011;4604;48.616;9.548;2023-10-08T06:46:54;4.33;;;1.97;;
9138;SDS011;4604;48.616;9.548;2023-10-08T06:49:21;5.27;;;3.00;;
9138;SDS011;4604;48.616;9.548;2023-10-08T06:51:50;6.73;;;3.17;;
9138;SDS011;4604;48.616;9.548;2023-10-08T06:54:18;7.20;;;2.93;;
9138;SDS011;4604;48.616;9.548;2023-10-08T06:56:47;7.90;;;2.80;;
9138;SDS011;4604;48.616;9.548;2023-10-08T06:59:17;5.60;;;3.10;;
9138;SDS011;4604;48.616;9.548;2023-10-08T07:01:44;6.80;;;2.90;;
9138;SDS011;4604;48.616;9.548;2023-10-08T07:04:16;7.38;;;2.58;;
9138;SDS011;4604;48.616;9.548;2023-10-08T07:06:44;8.10;;;3.00;;
9138;SDS011;4604;48.616;9.548;2023-10-08T07:09:11;5.97;;;2.78;;
9138;SDS011;4604;48.616;9.548;2023-10-08T07:11:47;7.55;;;2.65;;
9138;SDS011;4604;48.616;9.548;2023-10-08T07:14:22;6.95;;;2.40;;
9138;SDS011;4604;48.616;9.548;2023-10-08T07:16:57;6.87;;;2.33;;
9138;SDS011;4604;48.616;9.548;2023-10-08T07:19:27;6.35;;;2.83;;
9138;SDS011;4604;48.616;9.548;2023-10-08T07:22:02;6.25;;;2.40;;
9138;SDS011;4604;48.616;9.548;2023-10-08T07:24:31;10.77;;;3.20;;
9138;SDS011;4604;48.616;9.548;2023-10-08T07:27:03;14.55;;;4.00;;
9138;SDS011;4604;48.616;9.548;2023-10-08T07:29:34;17.70;;;8.98;;
9138;SDS011;4604;48.616;9.548;2023-10-08T07:32:01;16.13;;;8.40;;
9138;SDS011;4604;48.616;9.548;2023-10-08T07:34:36;21.70;;;10.02;;
9138;SDS011;4604;48.616;9.548;2023-10-08T07:37:04;23.83;;;10.00;;
9138;SDS011;4604;48.616;9.548;2023-10-08T07:39:32;15.70;;;6.78;;
9138;SDS011;4604;48.616;9.548;2023-10-08T07:42:09;18.20;;;9.23;;
9138;SDS011;4604;48.616;9.548;2023-10-08T07:44:35;18.95;;;7.07;;
9138;SDS011;4604;48.616;9.548;2023-10-08T07:47:04;19.60;;;7.03;;
9138;SDS011;4604;48.616;9.548;2023-10-08T07:49:36;15.63;;;7.97;;
9138;SDS011;4604;48.616;9.548;2023-10-08T07:52:05;16.30;;;3.90;;
9138;SDS011;4604;48.616;9.548;2023-10-08T07:54:34;6.90;;;3.00;;
9138;SDS011;4604;48.616;9.548;2023-10-08T07:57:04;7.50;;;3.60;;
9138;SDS011;4604;48.616;9.548;2023-10-08T07:59:39;7.95;;;3.90;;
9138;SDS011;4604;48.616;9.548;2023-10-08T08:02:12;9.95;;;4.80;;
9138;SDS011;4604;48.616;9.548;2023-10-08T08:04:41;12.75;;;5.28;;
9138;SDS011;4604;48.616;9.548;2023-10-08T08:07:10;10.40;;;5.13;;
9138;SDS011;4604;48.616;9.548;2023-10-08T08:09:41;13.30;;;5.20;;
9138;SDS011;4604;48.616;9.548;2023-10-08T08:12:13;11.68;;;4.88;;
9138;SDS011;4604;48.616;9.548;2023-10-08T08:14:40;8.27;;;4.15;;
9138;SDS011;4604;48.616;9.548;2023-10-08T08:17:07;7.88;;;3.47;;
9138;SDS011;4604;48.616;9.548;2023-10-08T08:19:39;10.98;;;5.28;;
9138;SDS011;4604;48.616;9.548;2023-10-08T08:22:07;9.57;;;4.30;;
9138;SDS011;4604;48.616;9.548;2023-10-08T08:24:40;10.55;;;4.43;;
9138;SDS011;4604;48.616;9.548;2023-10-08T08:27:13;7.13;;;3.42;;
9138;SDS011;4604;48.616;9.548;2023-10-08T08:29:49;5.75;;;2.80;;
9138;SDS011;4604;48.616;9.548;2023-10-08T08:32:15;10.35;;;2.60;;
9138;SDS011;4604;48.616;9.548;2023-10-08T08:34:46;12.95;;;3.20;;
9138;SDS011;4604;48.616;9.548;2023-10-08T08:37:17;11.13;;;3.65;;
9138;SDS011;4604;48.616;9.548;2023-10-08T08:39:43;13.60;;;4.03;;
9138;SDS011;4604;48.616;9.548;2023-10-08T08:42:11;12.13;;;4.80;;
9138;SDS011;4604;48.616;9.548;2023-10-08T08:44:43;12.93;;;6.22;;
9138;SDS011;4604;48.616;9.548;2023-10-08T08:47:12;10.35;;;5.70;;
9138;SDS011;4604;48.616;9.548;2023-10-08T08:49:42;13.57;;;5.07;;
9138;SDS011;4604;48.616;9.548;2023-10-08T08:52:10;12.88;;;4.10;;
9138;SDS011;4604;48.616;9.548;2023-10-08T08:54:39;10.38;;;3.47;;
9138;SDS011;4604;48.616;9.548;2023-10-08T08:57:07;10.15;;;3.58;;
9138;SDS011;4604;48.616;9.548;2023-10-08T08:59:39;8.75;;;3.00;;
9138;SDS011;4604;48.616;9.548;2023-10-08T09:02:09;7.00;;;3.35;;
9138;SDS011;4604;48.616;9.548;2023-10-08T09:04:39;6.70;;;3.30;;
9138;SDS011;4604;48.616;9.548;2023-10-08T09:07:06;8.23;;;3.28;;
9138;SDS011;4604;48.616;9.548;2023-10-08T09:09:34;11.25;;;3.55;;
9138;SDS011;4604;48.616;9.548;2023-10-08T09:12:06;9.38;;;3.33;;
9138;SDS011;4604;48.616;9.548;2023-10-08T09:14:36;8.20;;;3.22;;
9138;SDS011;4604;48.616;9.548;2023-10-08T09:17:03;10.38;;;4.03;;
9138;SDS011;4604;48.616;9.548;2023-10-08T09:19:35;9.30;;;3.40;;
9138;SDS011;4604;48.616;9.548;2023-10-08T09:22:03;6.88;;;3.55;;
9138;SDS011;4604;48.616;9.548;2023-10-08T09:24:31;6.43;;;3.10;;
9138;SDS011;4604;48.616;9.548;2023-10-08T09:27:01;14.20;;;3.80;;
9138;SDS011;4604;48.616;9.548;2023-10-08T09:29:30;9.68;;;3.20;;
9138;SDS011;4604;48.616;9.548;2023-10-08T09:31:57;11.68;;;3.30;;
9138;SDS011;4604;48.616;9.548;2023-10-08T09:34:29;8.80;;;3.17;;
9138;SDS011;4604;48.616;9.548;2023-10-08T09:37:29;6.90;;;3.33;;
9138;SDS011;4604;48.616;9.548;2023-10-08T09:43:25;7.40;;;2.85;;
9138;SDS011;4604;48.616;9.548;2023-10-08T09:45:54;7.45;;;3.50;;
9138;SDS011;4604;48.616;9.548;2023-10-08T09:48:25;4.97;;;3.05;;
9138;SDS011;4604;48.616;9.548;2023-10-08T09:51:01;11.43;;;3.47;;
9138;SDS011;4604;48.616;9.548;2023-10-08T09:53:32;6.63;;;3.05;;
9138;SDS011;4604;48.616;9.548;2023-10-08T09:56:12;7.85;;;3.63;;
9138;SDS011;4604;48.616;9.548;2023-10-08T09:58:40;9.90;;;3.35;;
9138;SDS011;4604;48.616;9.548;2023-10-08T10:01:10;5.15;;;2.88;;
9138;SDS011;4604;48.616;9.548;2023-10-08T10:03:38;6.25;;;2.92;;
9138;SDS011;4604;48.616;9.548;2023-10-08T10:06:12;10.93;;;4.07;;
9138;SDS011;4604;48.616;9.548;2023-10-08T10:08:41;7.53;;;3.10;;
9138;SDS011;4604;48.616;9.548;2023-10-08T10:11:11;9.20;;;3.25;;
9138;SDS011;4604;48.616;9.548;2023-10-08T10:13:38;9.30;;;3.28;;
9138;SDS011;4604;48.616;9.548;2023-10-08T10:16:07;7.47;;;3.05;;
9138;SDS011;4604;48.616;9.548;2023-10-08T10:18:37;7.60;;;3.50;;
9138;SDS011;4604;48.616;9.548;2023-10-08T10:24:12;6.15;;;3.10;;
9138;SDS011;4604;48.616;9.548;2023-10-08T10:26:48;9.75;;;3.28;;
9138;SDS011;4604;48.616;9.548;2023-10-08T10:29:19;10.57;;;3.67;;
9138;SDS011;4604;48.616;9.548;2023-10-08T10:31:47;6.53;;;3.70;;
9138;SDS011;4604;48.616;9.548;2023-10-08T10:34:19;8.30;;;3.35;;
9138;SDS011;4604;48.616;9.548;2023-10-08T10:36:49;9.60;;;3.38;;
9138;SDS011;4604;48.616;9.548;2023-10-08T10:39:21;10.90;;;3.42;;
9138;SDS011;4604;48.616;9.548;2023-10-08T10:41:53;7.88;;;3.10;;
9138;SDS011;4604;48.616;9.548;2023-10-08T10:44:22;8.93;;;3.50;;
9138;SDS011;4604;48.616;9.548;2023-10-08T10:46:49;10.10;;;3.30;;
9138;SDS011;4604;48.616;9.548;2023-10-08T10:49:16;5.60;;;3.50;;
9138;SDS011;4604;48.616;9.548;2023-10-08T10:51:48;7.72;;;3.55;;
9138;SDS011;4604;48.616;9.548;2023-10-08T10:54:22;8.43;;;3.28;;
9138;SDS011;4604;48.616;9.548;2023-10-08T10:56:49;5.50;;;3.13;;
9138;SDS011;4604;48.616;9.548;2023-10-08T10:59:28;7.47;;;3.20;;
9138;SDS011;4604;48.616;9.548;2023-10-08T11:02:02;7.97;;;2.97;;
9138;SDS011;4604;48.616;9.548;2023-10-08T11:04:33;11.02;;;3.50;;
9138;SDS011;4604;48.616;9.548;2023-10-08T11:07:14;10.52;;;3.13;;
9138;SDS011;4604;48.616;9.548;2023-10-08T11:09:43;8.77;;;3.03;;
9138;SDS011;4604;48.616;9.548;2023-10-08T11:12:10;12.23;;;3.58;;
9138;SDS011;4604;48.616;9.548;2023-10-08T11:14:45;6.03;;;2.95;;
9138;SDS011;4604;48.616;9.548;2023-10-08T11:17:13;8.20;;;3.17;;
9138;SDS011;4604;48.616;9.548;2023-10-08T11:19:41;6.70;;;2.78;;
9138;SDS011;4604;48.616;9.548;2023-10-08T11:22:11;7.07;;;2.92;;
9138;SDS011;4604;48.616;9.548;2023-10-08T11:24:42;8.10;;;3.20;;
9138;SDS011;4604;48.616;9.548;2023-10-08T11:27:12;4.53;;;2.80;;
9138;SDS011;4604;48.616;9.548;2023-10-08T11:29:43;7.55;;;2.72;;
9138;SDS011;4604;48.616;9.548;2023-10-08T11:32:14;5.65;;;2.70;;
9138;SDS011;4604;48.616;9.548;2023-10-08T11:34:42;5.82;;;2.70;;
9138;SDS011;4604;48.616;9.548;2023-10-08T11:37:15;10.90;;;3.08;;
9138;SDS011;4604;48.616;9.548;2023-10-08T11:39:54;6.32;;;2.88;;
9138;SDS011;4604;48.616;9.548;2023-10-08T11:42:23;5.53;;;2.65;;
9138;SDS011;4604;48.616;9.548;2023-10-08T11:45:09;9.95;;;3.05;;
9138;SDS011;4604;48.616;9.548;2023-10-08T11:47:51;7.65;;;2.83;;
9138;SDS011;4604;48.616;9.548;2023-10-08T11:50:25;9.43;;;2.75;;
9138;SDS011;4604;48.616;9.548;2023-10-08T11:52:57;8.77;;;3.22;;
9138;SDS011;4604;48.616;9.548;2023-10-08T11:55:29;5.13;;;2.80;;
9138;SDS011;4604;48.616;9.548;2023-10-08T11:58:00;7.15;;;2.92;;
9138;SDS011;4604;48.616;9.548;2023-10-08T12:00:34;6.53;;;2.88;;
9138;SDS011;4604;48.616;9.548;2023-10-08T12:03:09;6.38;;;2.80;;
9138;SDS011;4604;48.616;9.548;2023-10-08T12:05:37;5.50;;;2.90;;
9138;SDS011;4604;48.616;9.548;2023-10-08T12:08:12;7.55;;;3.10;;
9138;SDS011;4604;48.616;9.548;2023-10-08T12:10:41;10.23;;;3.35;;
9138;SDS011;4604;48.616;9.548;2023-10-08T12:13:08;10.25;;;3.38;;
9138;SDS011;4604;48.616;9.548;2023-10-08T12:15:36;8.50;;;3.30;;
9138;SDS011;4604;48.616;9.548;2023-10-08T12:18:04;6.07;;;3.25;;
9138;SDS011;4604;48.616;9.548;2023-10-08T12:20:38;8.80;;;3.47;;
9138;SDS011;4604;48.616;9.548;2023-10-08T12:23:09;6.97;;;3.33;;
9138;SDS011;4604;48.616;9.548;2023-10-08T12:25:36;9.82;;;3.15;;
9138;SDS011;4604;48.616;9.548;2023-10-08T12:28:05;10.23;;;3.30;;
9138;SDS011;4604;48.616;9.548;2023-10-08T12:30:32;12.20;;;3.20;;
9138;SDS011;4604;48.616;9.548;2023-10-08T12:33:06;10.05;;;2.95;;
9138;SDS011;4604;48.616;9.548;2023-10-08T12:35:37;10.15;;;3.05;;
9138;SDS011;4604;48.616;9.548;2023-10-08T12:38:05;6.78;;;3.35;;
9138;SDS011;4604;48.616;9.548;2023-10-08T12:40:31;8.55;;;3.60;;
9138;SDS011;4604;48.616;9.548;2023-10-08T12:43:09;6.18;;;2.90;;
9138;SDS011;4604;48.616;9.548;2023-10-08T12:45:36;10.43;;;3.00;;
9138;SDS011;4604;48.616;9.548;2023-10-08T12:48:03;7.70;;;3.22;;
9138;SDS011;4604;48.616;9.548;2023-10-08T12:50:33;9.45;;;3.38;;
9138;SDS011;4604;48.616;9.548;2023-10-08T12:53:07;11.73;;;3.33;;
9138;SDS011;4604;48.616;9.548;2023-10-08T12:55:36;12.38;;;2.95;;
9138;SDS011;4604;48.616;9.548;2023-10-08T12:58:05;6.82;;;2.92;;
9138;SDS011;4604;48.616;9.548;2023-10-08T13:00:36;14.00;;;3.42;;
9138;SDS011;4604;48.616;9.548;2023-10-08T13:03:06;12.57;;;3.20;;
9138;SDS011;4604;48.616;9.548;2023-10-08T13:05:40;9.88;;;3.42;;
9138;SDS011;4604;48.616;9.548;2023-10-08T13:08:10;6.63;;;2.97;;
9138;SDS011;4604;48.616;9.548;2023-10-08T13:10:38;8.27;;;3.10;;
9138;SDS011;4604;48.616;9.548;2023-10-08T13:13:09;8.57;;;3.00;;
9138;SDS011;4604;48.616;9.548;2023-10-08T13:15:40;7.75;;;3.30;;
9138;SDS011;4604;48.616;9.548;2023-10-08T13:18:08;7.22;;;2.75;;
9138;SDS011;4604;48.616;9.548;2023-10-08T13:20:35;8.68;;;3.03;;
9138;SDS011;4604;48.616;9.548;2023-10-08T13:23:01;5.72;;;3.42;;
9138;SDS011;4604;48.616;9.548;2023-10-08T13:25:29;11.15;;;3.60;;
9138;SDS011;4604;48.616;9.548;2023-10-08T13:27:58;13.02;;;3.17;;
9138;SDS011;4604;48.616;9.548;2023-10-08T13:30:25;7.03;;;3.00;;
9138;SDS011;4604;48.616;9.548;2023-10-08T13:32:54;11.18;;;3.45;;
9138;SDS011;4604;48.616;9.548;2023-10-08T13:35:21;12.88;;;3.60;;
9138;SDS011;4604;48.616;9.548;2023-10-08T13:37:47;18.05;;;3.42;;
9138;SDS011;4604;48.616;9.548;2023-10-08T13:40:14;9.13;;;3.00;;
9138;SDS011;4604;48.616;9.548;2023-10-08T13:42:41;8.60;;;3.10;;
9138;SDS011;4604;48.616;9.548;2023-10-08T13:45:08;12.45;;;3.70;;
9138;SDS011;4604;48.616;9.548;2023-10-08T13:47:41;13.45;;;3.13;;
9138;SDS011;4604;48.616;9.548;2023-10-08T13:50:10;10.20;;;3.63;;
9138;SDS011;4604;48.616;9.548;2023-10-08T13:52:38;14.57;;;3.55;;
9138;SDS011;4604;48.616;9.548;2023-10-08T13:55:05;9.98;;;3.40;;
9138;SDS011;4604;48.616;9.548;2023-10-08T13:57:38;12.77;;;3.88;;
9138;SDS011;4604;48.616;9.548;2023-10-08T14:00:07;10.15;;;3.38;;
9138;SDS011;4604;48.616;9.548;2023-10-08T14:02:40;9.68;;;3.33;;
9138;SDS011;4604;48.616;9.548;2023-10-08T14:05:07;10.52;;;3.28;;
9138;SDS011;4604;48.616;9.548;2023-10-08T14:07:40;12.07;;;3.47;;
9138;SDS011;4604;48.616;9.548;2023-10-08T14:10:09;7.18;;;3.30;;
9138;SDS011;4604;48.616;9.548;2023-10-08T14:12:44;13.15;;;3.38;;
9138;SDS011;4604;48.616;9.548;2023-10-08T14:15:14;10.05;;;2.95;;
9138;SDS011;4604;48.616;9.548;2023-10-08T14:17:44;16.88;;;3.47;;
9138;SDS011;4604;48.616;9.548;2023-10-08T14:20:15;10.02;;;3.58;;
9138;SDS011;4604;48.616;9.548;2023-10-08T14:22:47;11.82;;;3.95;;
9138;SDS011;4604;48.616;9.548;2023-10-08T14:25:22;10.57;;;3.67;;
9138;SDS011;4604;48.616;9.548;2023-10-08T14:27:50;11.77;;;3.50;;
9138;SDS011;4604;48.616;9.548;2023-10-08T14:30:18;14.60;;;3.05;;
9138;SDS011;4604;48.616;9.548;2023-10-08T14:32:49;12.15;;;3.67;;
9138;SDS011;4604;48.616;9.548;2023-10-08T14:35:17;10.02;;;3.22;;
9138;SDS011;4604;48.616;9.548;2023-10-08T14:38:01;9.07;;;3.00;;
9138;SDS011;4604;48.616;9.548;2023-10-08T14:40:46;12.15;;;3.13;;
9138;SDS011;4604;48.616;9.548;2023-10-08T14:43:30;14.80;;;3.55;;
9138;SDS011;4604;48.616;9.548;2023-10-08T14:45:59;14.38;;;3.55;;
9138;SDS011;4604;48.616;9.548;2023-10-08T14:48:29;12.45;;;3.33;;
9138;SDS011;4604;48.616;9.548;2023-10-08T14:51:01;10.02;;;3.40;;
9138;SDS011;4604;48.616;9.548;2023-10-08T14:53:29;9.98;;;3.50;;
9138;SDS011;4604;48.616;9.548;2023-10-08T14:55:56;11.55;;;3.80;;
9138;SDS011;4604;48.616;9.548;2023-10-08T14:58:24;14.55;;;4.05;;
9138;SDS011;4604;48.616;9.548;2023-10-08T15:00:51;9.98;;;3.33;;
9138;SDS011;4604;48.616;9.548;2023-10-08T15:03:19;6.63;;;3.17;;
9138;SDS011;4604;48.616;9.548;2023-10-08T15:05:47;9.10;;;3.33;;
9138;SDS011;4604;48.616;9.548;2023-10-08T15:08:16;13.43;;;3.25;;
9138;SDS011;4604;48.616;9.548;2023-10-08T15:10:44;7.88;;;3.47;;
9138;SDS011;4604;48.616;9.548;2023-10-08T15:13:12;8.52;;;3.50;;
9138;SDS011;4604;48.616;9.548;2023-10-08T15:15:39;7.20;;;3.15;;
9138;SDS011;4604;48.616;9.548;2023-10-08T15:18:08;12.95;;;3.67;;
9138;SDS011;4604;48.616;9.548;2023-10-08T15:20:36;11.10;;;3.65;;
9138;SDS011;4604;48.616;9.548;2023-10-08T15:23:08;8.63;;;3.65;;
9138;SDS011;4604;48.616;9.548;2023-10-08T15:25:38;10.43;;;3.40;;
9138;SDS011;4604;48.616;9.548;2023-10-08T15:28:05;10.80;;;4.10;;
9138;SDS011;4604;48.616;9.548;2023-10-08T15:30:32;6.68;;;3.40;;
9138;SDS011;4604;48.616;9.548;2023-10-08T15:33:00;9.25;;;3.47;;
9138;SDS011;4604;48.616;9.548;2023-10-08T15:35:27;10.07;;;3.72;;
9138;SDS011;4604;48.616;9.548;2023-10-08T15:37:53;6.75;;;3.40;;
9138;SDS011;4604;48.616;9.548;2023-10-08T15:40:21;7.05;;;3.17;;
9138;SDS011;4604;48.616;9.548;2023-10-08T15:42:50;12.38;;;3.95;;
9138;SDS011;4604;48.616;9.548;2023-10-08T15:45:17;6.80;;;3.65;;
9138;SDS011;4604;48.616;9.548;2023-10-08T15:47:44;9.75;;;3.40;;
9138;SDS011;4604;48.616;9.548;2023-10-08T15:50:11;6.78;;;3.90;;
9138;SDS011;4604;48.616;9.548;2023-10-08T15:52:38;7.05;;;3.70;;
9138;SDS011;4604;48.616;9.548;2023-10-08T15:55:06;7.00;;;3.30;;